createdAt,value
2022-12-04T00:00:03.762Z,5.30
2022-12-04T00:02:30.768Z,5.30
2022-12-04T00:04:57.584Z,5.30
2022-12-04T00:07:24.315Z,5.30
2022-12-04T00:09:51.017Z,5.30
2022-12-04T00:12:17.676Z,5.30
2022-12-04T00:15:16.586Z,5.30
2022-12-04T00:17:31.138Z,5.30
2022-12-04T00:19:57.779Z,5.30
2022-12-04T00:22:24.469Z,5.20
2022-12-04T00:24:53.367Z,5.20
2022-12-04T00:27:20.086Z,5.30
2022-12-04T00:29:50.058Z,5.30
2022-12-04T00:32:16.818Z,5.20
2022-12-04T00:34:43.571Z,5.30
2022-12-04T00:37:10.340Z,5.30
2022-12-04T00:39:37.092Z,5.20
2022-12-04T00:42:03.895Z,5.20
2022-12-04T00:44:30.558Z,5.20
2022-12-04T00:46:57.210Z,5.40
2022-12-04T00:49:23.949Z,5.30
2022-12-04T00:51:50.625Z,5.30
2022-12-04T00:54:17.333Z,5.30
2022-12-04T00:56:44.079Z,5.20
2022-12-04T00:59:11.125Z,5.20
2022-12-04T01:01:37.927Z,5.20
2022-12-04T01:04:04.686Z,5.30
2022-12-04T01:06:33.382Z,5.30
2022-12-04T01:09:02.002Z,5.30
2022-12-04T01:11:29.597Z,5.20
2022-12-04T01:13:57.396Z,5.20
2022-12-04T01:16:27.262Z,5.20
2022-12-04T01:18:54.272Z,5.20
2022-12-04T01:21:21.122Z,5.20
2022-12-04T01:23:47.964Z,5.20
2022-12-04T01:26:15.064Z,5.20
2022-12-04T01:28:41.750Z,5.20
2022-12-04T01:31:19.642Z,5.20
2022-12-04T01:33:47.489Z,5.20
2022-12-04T01:36:16.766Z,5.20
2022-12-04T01:38:44.096Z,5.20
2022-12-04T01:41:11.890Z,5.20
2022-12-04T01:43:39.298Z,5.20
2022-12-04T01:46:06.601Z,5.30
2022-12-04T01:48:46.267Z,5.20
2022-12-04T01:51:34.613Z,5.30
2022-12-04T01:54:04.199Z,5.20
2022-12-04T01:56:43.307Z,5.20
2022-12-04T01:59:12.907Z,5.20
2022-12-04T02:01:46.891Z,5.20
2022-12-04T02:04:13.617Z,5.20
2022-12-04T02:06:40.334Z,5.20
2022-12-04T02:09:08.028Z,5.20
2022-12-04T02:11:42.057Z,5.20
2022-12-04T02:14:25.317Z,5.30
2022-12-04T02:17:13.459Z,5.20
2022-12-04T02:19:46.310Z,5.20
2022-12-04T02:22:41.674Z,5.20
2022-12-04T02:25:21.348Z,5.20
2022-12-04T02:28:16.360Z,5.30
2022-12-04T02:30:43.997Z,5.20
2022-12-04T02:33:26.170Z,5.20
2022-12-04T02:36:07.118Z,5.30
2022-12-04T02:38:40.967Z,5.20
2022-12-04T02:41:20.350Z,5.30
2022-12-04T02:43:52.676Z,5.20
2022-12-04T02:46:46.679Z,5.20
2022-12-04T02:49:19.624Z,5.30
2022-12-04T02:51:47.893Z,5.20
2022-12-04T02:54:24.878Z,5.20
2022-12-04T02:56:53.015Z,5.20
2022-12-04T02:59:27.027Z,5.20
2022-12-04T03:01:57.978Z,5.20
2022-12-04T03:04:30.771Z,5.20
2022-12-04T03:07:02.534Z,5.30
2022-12-04T03:10:07.780Z,5.20
2022-12-04T03:12:46.821Z,5.30
2022-12-04T03:15:28.926Z,5.30
2022-12-04T03:18:07.408Z,5.30
2022-12-04T03:20:35.340Z,5.30
2022-12-04T03:23:23.085Z,5.30
2022-12-04T03:26:16.934Z,5.30
2022-12-04T03:28:48.765Z,5.30
2022-12-04T03:31:18.808Z,5.30
2022-12-04T03:33:46.883Z,5.30
2022-12-04T03:36:29.391Z,5.20
2022-12-04T03:39:09.094Z,5.30
2022-12-04T03:41:51.069Z,5.30
2022-12-04T03:44:27.773Z,5.30
2022-12-04T03:46:59.269Z,5.20
2022-12-04T03:49:53.136Z,5.80
2022-12-04T03:52:23.504Z,5.30
2022-12-04T03:54:54.123Z,5.30
2022-12-04T03:57:25.942Z,5.20
2022-12-04T04:00:09.993Z,5.20
2022-12-04T04:02:40.202Z,5.30
2022-12-04T04:05:09.193Z,5.20
2022-12-04T04:08:22.351Z,5.20
2022-12-04T04:10:49.670Z,5.20
2022-12-04T04:13:45.909Z,5.20
2022-12-04T04:16:33.186Z,5.20
2022-12-04T04:19:19.464Z,5.20
2022-12-04T04:22:09.207Z,5.20
2022-12-04T04:24:45.135Z,5.20
2022-12-04T04:27:12.522Z,5.20
2022-12-04T04:29:39.629Z,5.20
2022-12-04T04:32:38.100Z,5.20
2022-12-04T04:35:21.599Z,5.20
2022-12-04T04:38:02.583Z,5.20
2022-12-04T04:40:29.184Z,5.30
2022-12-04T04:43:20.347Z,5.30
2022-12-04T04:45:58.255Z,5.30
2022-12-04T04:48:42.364Z,5.30
2022-12-04T04:51:09.644Z,5.20
2022-12-04T04:53:44.500Z,5.20
2022-12-04T04:56:11.607Z,5.20
2022-12-04T04:58:38.261Z,5.30
2022-12-04T05:01:06.065Z,5.20
2022-12-04T05:03:33.039Z,5.20
2022-12-04T05:05:59.640Z,5.20
2022-12-04T05:08:26.396Z,5.30
2022-12-04T05:10:56.738Z,5.30
2022-12-04T05:13:23.475Z,5.20
2022-12-04T05:16:05.514Z,5.30
2022-12-04T05:18:33.563Z,5.20
2022-12-04T05:21:02.993Z,5.20
2022-12-04T05:23:29.599Z,5.20
2022-12-04T05:26:00.611Z,5.30
2022-12-04T05:28:27.821Z,5.30
2022-12-04T05:30:56.366Z,5.30
2022-12-04T05:33:23.681Z,5.30
2022-12-04T05:36:01.302Z,5.20
2022-12-04T05:38:28.116Z,5.30
2022-12-04T05:40:54.750Z,5.30
2022-12-04T05:43:21.364Z,5.30
2022-12-04T05:45:47.967Z,5.30
2022-12-04T05:48:15.304Z,5.30
2022-12-04T05:50:42.106Z,5.30
2022-12-04T05:53:08.775Z,5.30
2022-12-04T05:55:35.456Z,5.30
2022-12-04T05:58:02.487Z,5.30
2022-12-04T06:00:29.548Z,5.30
2022-12-04T06:02:56.245Z,5.30
2022-12-04T06:05:22.934Z,5.30
2022-12-04T06:07:49.571Z,5.30
2022-12-04T06:10:16.347Z,5.30
2022-12-04T06:12:42.944Z,5.20
2022-12-04T06:15:10.019Z,5.30
2022-12-04T06:17:36.628Z,5.20
2022-12-04T06:20:09.585Z,5.20
2022-12-04T06:22:38.007Z,5.30
2022-12-04T06:25:04.890Z,5.30
2022-12-04T06:27:31.532Z,5.30
2022-12-04T06:29:58.532Z,5.20
2022-12-04T06:32:25.517Z,5.20
2022-12-04T06:34:53.254Z,5.20
2022-12-04T06:37:21.248Z,5.30
2022-12-04T06:39:47.922Z,5.30
2022-12-04T06:42:14.703Z,5.30
2022-12-04T06:44:41.335Z,5.30
2022-12-04T06:47:08.796Z,5.30
2022-12-04T06:49:36.120Z,5.30
2022-12-04T06:52:03.317Z,5.30
2022-12-04T06:54:29.968Z,5.20
2022-12-04T06:56:56.653Z,5.20
2022-12-04T06:59:23.782Z,5.30
2022-12-04T07:01:50.621Z,5.20
2022-12-04T07:04:17.376Z,5.30
2022-12-04T07:06:43.981Z,5.30
2022-12-04T07:09:14.741Z,5.20
2022-12-04T07:11:42.320Z,5.30
2022-12-04T07:14:09.572Z,5.30
2022-12-04T07:16:40.727Z,5.30
2022-12-04T07:19:11.670Z,5.30
2022-12-04T07:21:38.416Z,5.30
2022-12-04T07:24:05.892Z,5.20
2022-12-04T07:26:32.712Z,5.30
2022-12-04T07:28:59.917Z,5.30
2022-12-04T07:31:28.071Z,5.30
2022-12-04T07:33:55.326Z,5.30
2022-12-04T07:36:23.237Z,5.30
2022-12-04T07:38:50.593Z,5.30
2022-12-04T07:41:18.200Z,5.30
2022-12-04T07:43:44.880Z,5.30
2022-12-04T07:46:17.738Z,5.30
2022-12-04T07:48:44.375Z,5.30
2022-12-04T07:51:14.042Z,5.30
2022-12-04T07:53:40.954Z,5.30
2022-12-04T07:56:08.312Z,5.30
2022-12-04T07:58:35.018Z,5.30
2022-12-04T08:01:22.465Z,5.30
2022-12-04T08:03:50.716Z,5.30
2022-12-04T08:06:19.082Z,5.20
2022-12-04T08:08:46.566Z,5.30
2022-12-04T08:11:16.015Z,5.30
2022-12-04T08:13:42.815Z,5.30
2022-12-04T08:16:10.824Z,5.30
2022-12-04T08:18:37.979Z,5.30
2022-12-04T08:21:05.942Z,5.30
2022-12-04T08:23:32.651Z,5.20
2022-12-04T08:26:03.392Z,5.30
2022-12-04T08:28:30.228Z,5.30
2022-12-04T08:31:13.800Z,5.30
2022-12-04T08:33:41.790Z,5.30
2022-12-04T08:36:14.409Z,5.30
2022-12-04T08:38:43.797Z,5.30
2022-12-04T08:41:13.602Z,5.30
2022-12-04T08:43:40.668Z,5.30
2022-12-04T08:46:10.078Z,5.30
2022-12-04T08:48:37.268Z,5.30
2022-12-04T08:51:04.339Z,5.30
2022-12-04T08:53:32.025Z,5.30
2022-12-04T08:56:00.870Z,5.30
2022-12-04T08:58:27.469Z,5.30
2022-12-04T09:00:54.102Z,5.30
2022-12-04T09:03:26.060Z,5.30
2022-12-04T09:05:58.974Z,5.30
2022-12-04T09:08:25.797Z,5.30
2022-12-04T09:10:52.420Z,5.40
2022-12-04T09:13:19.151Z,5.40
2022-12-04T09:15:45.822Z,5.30
2022-12-04T09:18:12.455Z,5.30
2022-12-04T09:20:39.103Z,5.40
2022-12-04T09:23:05.814Z,5.40
2022-12-04T09:25:36.375Z,5.40
2022-12-04T09:28:03.206Z,5.40
2022-12-04T09:30:29.839Z,5.40
2022-12-04T09:32:56.431Z,5.40
2022-12-04T09:35:23.160Z,5.40
2022-12-04T09:37:49.772Z,5.40
2022-12-04T09:40:37.708Z,5.40
2022-12-04T09:43:21.353Z,5.40
2022-12-04T09:45:51.943Z,5.40
2022-12-04T09:48:19.743Z,5.40
2022-12-04T09:50:48.175Z,5.40
2022-12-04T09:53:17.576Z,5.40
2022-12-04T09:56:04.270Z,5.40
2022-12-04T09:58:53.811Z,5.40
2022-12-04T10:01:25.691Z,5.40
2022-12-04T10:03:54.112Z,5.40
2022-12-04T10:06:27.721Z,5.40
2022-12-04T10:09:03.432Z,5.40
2022-12-04T10:12:13.172Z,5.50
2022-12-04T10:15:06.919Z,5.50
2022-12-04T10:17:56.165Z,5.50
2022-12-04T10:20:41.563Z,5.50
2022-12-04T10:23:19.664Z,5.50
2022-12-04T10:25:47.154Z,5.50
2022-12-04T10:28:25.624Z,5.50
2022-12-04T10:30:55.272Z,5.50
2022-12-04T10:33:53.262Z,5.50
2022-12-04T10:36:23.336Z,5.50
2022-12-04T10:38:57.538Z,5.50
2022-12-04T10:41:49.221Z,5.50
2022-12-04T10:44:17.309Z,5.50
2022-12-04T10:46:46.396Z,5.50
2022-12-04T10:49:24.969Z,5.50
2022-12-04T10:51:52.139Z,5.50
2022-12-04T10:54:21.950Z,5.50
2022-12-04T10:56:59.957Z,5.50
2022-12-04T10:59:27.719Z,5.50
2022-12-04T11:02:12.419Z,5.60
2022-12-04T11:04:41.872Z,5.50
2022-12-04T11:07:21.760Z,5.50
2022-12-04T11:10:07.706Z,5.60
2022-12-04T11:12:34.351Z,5.50
2022-12-04T11:15:19.005Z,5.50
2022-12-04T11:17:45.607Z,5.60
2022-12-04T11:20:26.487Z,5.60
2022-12-04T11:22:58.538Z,5.60
2022-12-04T11:25:27.503Z,5.60
2022-12-04T11:27:56.921Z,5.60
2022-12-04T11:30:32.834Z,5.60
2022-12-04T11:33:00.058Z,5.60
2022-12-04T11:35:29.206Z,5.60
2022-12-04T11:38:00.899Z,5.50
2022-12-04T11:40:28.208Z,5.60
2022-12-04T11:43:11.084Z,5.60
2022-12-04T11:45:37.827Z,5.60
2022-12-04T11:48:14.554Z,5.60
2022-12-04T11:50:47.090Z,5.70
2022-12-04T11:53:32.273Z,5.60
2022-12-04T11:56:28.120Z,5.60
2022-12-04T11:59:25.680Z,5.70
2022-12-04T12:02:17.192Z,5.60
2022-12-04T12:04:46.606Z,5.60
2022-12-04T12:07:32.447Z,5.60
2022-12-04T12:10:25.026Z,5.70
2022-12-04T12:13:17.636Z,5.70
2022-12-04T12:16:11.932Z,5.70
2022-12-04T12:18:49.694Z,5.70
2022-12-04T12:21:26.224Z,5.70
2022-12-04T12:24:01.739Z,5.70
2022-12-04T12:26:44.399Z,5.60
2022-12-04T12:29:18.524Z,5.70
2022-12-04T12:31:52.470Z,5.70
2022-12-04T12:34:34.033Z,5.70
2022-12-04T12:37:14.824Z,5.70
2022-12-04T12:39:50.345Z,5.70
2022-12-04T12:42:39.349Z,5.70
2022-12-04T12:45:36.005Z,5.70
2022-12-04T12:48:25.476Z,5.70
2022-12-04T12:51:14.914Z,5.80
2022-12-04T12:53:48.148Z,5.70
2022-12-04T12:56:16.241Z,5.70
2022-12-04T12:58:55.790Z,5.80
2022-12-04T13:01:23.778Z,5.80
2022-12-04T13:04:10.723Z,5.80
2022-12-04T13:06:39.709Z,5.80
2022-12-04T13:09:12.214Z,5.70
2022-12-04T13:11:39.332Z,5.80
2022-12-04T13:14:06.217Z,5.80
2022-12-04T13:16:47.928Z,5.80
2022-12-04T13:19:41.521Z,5.70
2022-12-04T13:22:28.486Z,5.80
2022-12-04T13:25:12.351Z,5.90
2022-12-04T13:28:06.680Z,5.90
2022-12-04T13:30:47.628Z,5.90
2022-12-04T13:33:52.153Z,5.90
2022-12-04T13:36:43.293Z,5.90
2022-12-04T13:39:24.705Z,5.90
2022-12-04T13:42:00.048Z,5.90
2022-12-04T13:44:27.662Z,5.90
2022-12-04T13:47:06.812Z,5.90
2022-12-04T13:49:38.753Z,6.00
2022-12-04T13:52:21.506Z,5.90
2022-12-04T13:54:58.936Z,5.90
2022-12-04T13:57:27.308Z,5.90
2022-12-04T14:00:20.590Z,6.00
2022-12-04T14:02:53.010Z,6.00
2022-12-04T14:05:30.647Z,5.90
2022-12-04T14:08:08.003Z,5.90
2022-12-04T14:10:37.250Z,5.90
2022-12-04T14:13:24.547Z,5.90
2022-12-04T14:16:07.079Z,5.90
2022-12-04T14:18:34.138Z,5.90
2022-12-04T14:21:04.663Z,5.90
2022-12-04T14:23:36.057Z,5.90
2022-12-04T14:26:05.171Z,5.90
2022-12-04T14:28:34.844Z,5.90
2022-12-04T14:31:08.387Z,5.90
2022-12-04T14:33:39.799Z,5.90
2022-12-04T14:36:15.555Z,6.00
2022-12-04T14:38:47.781Z,6.00
2022-12-04T14:41:14.662Z,5.90
2022-12-04T14:43:44.729Z,5.90
2022-12-04T14:46:25.185Z,6.00
2022-12-04T14:49:13.255Z,5.90
2022-12-04T14:51:45.936Z,6.00
2022-12-04T14:54:21.259Z,5.90
2022-12-04T14:57:09.302Z,5.90
2022-12-04T14:59:45.480Z,5.90
2022-12-04T15:02:20.387Z,5.90
2022-12-04T15:04:49.012Z,5.90
2022-12-04T15:07:21.072Z,5.90
2022-12-04T15:10:13.255Z,5.90
2022-12-04T15:12:50.284Z,5.90
2022-12-04T15:15:22.011Z,5.90
2022-12-04T15:17:58.287Z,5.90
2022-12-04T15:20:25.729Z,5.90
2022-12-04T15:22:53.957Z,5.90
2022-12-04T15:25:24.628Z,5.90
2022-12-04T15:27:53.527Z,5.90
2022-12-04T15:30:22.084Z,5.90
2022-12-04T15:32:51.536Z,5.90
2022-12-04T15:35:46.806Z,5.90
2022-12-04T15:38:14.902Z,5.90
2022-12-04T15:41:01.676Z,5.90
2022-12-04T15:43:32.850Z,5.90
2022-12-04T15:45:59.988Z,5.90
2022-12-04T15:48:31.268Z,5.90
2022-12-04T15:51:03.704Z,5.90
2022-12-04T15:53:37.162Z,5.90
2022-12-04T15:56:06.785Z,5.90
2022-12-04T15:58:35.863Z,5.90
2022-12-04T16:01:04.643Z,5.90
2022-12-04T16:03:38.487Z,5.90
2022-12-04T16:06:26.505Z,5.90
2022-12-04T16:08:55.866Z,5.90
2022-12-04T16:11:29.765Z,5.80
2022-12-04T16:14:15.424Z,5.80
2022-12-04T16:16:48.340Z,5.90
2022-12-04T16:19:20.643Z,5.90
2022-12-04T16:21:47.273Z,5.90
2022-12-04T16:24:14.114Z,5.90
2022-12-04T16:26:41.475Z,5.80
2022-12-04T16:29:08.256Z,5.90
2022-12-04T16:31:35.393Z,5.90
2022-12-04T16:34:02.031Z,5.80
2022-12-04T16:36:28.696Z,5.90
2022-12-04T16:38:55.495Z,5.90
2022-12-04T16:41:22.123Z,5.80
2022-12-04T16:43:56.874Z,5.80
2022-12-04T16:46:25.287Z,5.80
2022-12-04T16:48:52.506Z,5.90
2022-12-04T16:51:25.548Z,5.90
2022-12-04T16:53:53.424Z,5.90
2022-12-04T16:56:20.616Z,5.90
2022-12-04T16:58:47.536Z,5.90
2022-12-04T17:01:25.555Z,5.90
2022-12-04T17:03:52.721Z,5.90
2022-12-04T17:06:19.367Z,5.90
2022-12-04T17:08:46.155Z,5.90
2022-12-04T17:11:14.545Z,5.90
2022-12-04T17:13:41.746Z,5.90
2022-12-04T17:16:08.946Z,5.90
2022-12-04T17:18:35.855Z,5.90
2022-12-04T17:21:07.067Z,5.90
2022-12-04T17:23:33.975Z,5.80
2022-12-04T17:26:05.120Z,5.80
2022-12-04T17:28:32.350Z,5.90
2022-12-04T17:30:59.269Z,5.80
2022-12-04T17:33:26.158Z,5.80
2022-12-04T17:35:54.444Z,5.90
2022-12-04T17:38:21.340Z,5.80
2022-12-04T17:41:08.851Z,5.80
2022-12-04T17:43:36.518Z,5.90
2022-12-04T17:46:09.330Z,5.80
2022-12-04T17:48:36.571Z,5.80
2022-12-04T17:51:11.782Z,5.90
2022-12-04T17:53:43.160Z,5.80
2022-12-04T17:56:13.012Z,5.80
2022-12-04T17:58:40.178Z,5.90
2022-12-04T18:01:12.518Z,5.80
2022-12-04T18:03:39.724Z,5.90
2022-12-04T18:06:24.054Z,5.80
2022-12-04T18:08:51.035Z,5.80
2022-12-04T18:11:20.717Z,5.80
2022-12-04T18:13:48.915Z,5.90
2022-12-04T18:16:15.832Z,5.80
2022-12-04T18:18:42.619Z,5.90
2022-12-04T18:21:11.100Z,5.90
2022-12-04T18:23:44.385Z,5.90
2022-12-04T18:26:18.513Z,5.90
2022-12-04T18:28:46.433Z,5.90
2022-12-04T18:31:14.520Z,5.80
2022-12-04T18:33:42.381Z,5.80
2022-12-04T18:36:15.372Z,5.90
2022-12-04T18:38:42.144Z,5.90
2022-12-04T18:41:10.825Z,5.90
2022-12-04T18:43:39.897Z,5.90
2022-12-04T18:46:09.186Z,5.90
2022-12-04T18:48:36.912Z,5.80
2022-12-04T18:51:15.293Z,5.90
2022-12-04T18:53:42.496Z,5.80
2022-12-04T18:56:09.310Z,5.90
2022-12-04T18:58:35.996Z,5.80
2022-12-04T19:01:10.299Z,5.90
2022-12-04T19:03:37.403Z,5.80
2022-12-04T19:06:04.316Z,5.80
2022-12-04T19:08:34.343Z,5.80
2022-12-04T19:11:11.671Z,5.80
2022-12-04T19:13:38.557Z,5.80
2022-12-04T19:16:07.434Z,5.90
2022-12-04T19:18:34.498Z,5.90
2022-12-04T19:21:01.266Z,5.80
2022-12-04T19:23:28.034Z,5.90
2022-12-04T19:25:59.544Z,5.80
2022-12-04T19:28:27.612Z,5.90
2022-12-04T19:30:54.963Z,5.80
2022-12-04T19:33:23.055Z,5.80
2022-12-04T19:36:00.894Z,5.80
2022-12-04T19:38:28.891Z,5.90
2022-12-04T19:41:09.312Z,5.80
2022-12-04T19:43:40.919Z,5.90
2022-12-04T19:46:08.499Z,5.90
2022-12-04T19:48:37.785Z,5.90
2022-12-04T19:51:09.964Z,5.90
2022-12-04T19:53:40.920Z,5.90
2022-12-04T19:56:14.122Z,5.90
2022-12-04T19:58:40.932Z,5.90
2022-12-04T20:01:10.250Z,5.80
2022-12-04T20:03:37.299Z,5.90
2022-12-04T20:06:05.749Z,5.80
2022-12-04T20:08:32.899Z,5.90
2022-12-04T20:11:15.846Z,5.90
2022-12-04T20:13:43.643Z,5.90
2022-12-04T20:16:12.553Z,6.60
2022-12-04T20:18:40.063Z,6.40
2022-12-04T20:21:16.044Z,5.90
2022-12-04T20:23:50.936Z,5.90
2022-12-04T20:26:22.916Z,5.90
2022-12-04T20:28:49.775Z,5.90
2022-12-04T20:31:20.631Z,5.90
2022-12-04T20:33:49.188Z,5.90
2022-12-04T20:36:18.664Z,5.90
2022-12-04T20:38:45.840Z,5.90
2022-12-04T20:41:15.895Z,5.90
2022-12-04T20:43:43.738Z,5.90
2022-12-04T20:46:18.996Z,6.60
2022-12-04T20:48:49.411Z,5.80
2022-12-04T20:51:18.634Z,5.90
2022-12-04T20:53:46.563Z,5.90
2022-12-04T20:56:14.383Z,5.90
2022-12-04T20:58:41.611Z,5.90
2022-12-04T21:01:10.050Z,5.90
2022-12-04T21:03:36.985Z,5.90
2022-12-04T21:06:04.993Z,5.90
2022-12-04T21:08:50.702Z,5.90
2022-12-04T21:11:17.491Z,5.90
2022-12-04T21:14:02.858Z,5.90
2022-12-04T21:16:29.652Z,5.90
2022-12-04T21:18:56.465Z,5.90
2022-12-04T21:21:23.295Z,5.90
2022-12-04T21:23:49.999Z,5.90
2022-12-04T21:26:18.693Z,5.90
2022-12-04T21:28:45.453Z,5.90
2022-12-04T21:31:12.408Z,5.90
2022-12-04T21:33:39.110Z,5.90
2022-12-04T21:36:08.855Z,5.90
2022-12-04T21:38:37.339Z,5.90
2022-12-04T21:41:06.055Z,5.90
2022-12-04T21:43:33.516Z,5.90
2022-12-04T21:46:09.816Z,5.90
2022-12-04T21:48:37.196Z,6.40
2022-12-04T21:51:16.844Z,5.90
2022-12-04T21:53:55.039Z,5.90
2022-12-04T21:56:22.619Z,5.90
2022-12-04T21:58:49.470Z,5.90
2022-12-04T22:01:17.643Z,5.90
2022-12-04T22:03:44.477Z,5.90
2022-12-04T22:06:11.357Z,5.90
2022-12-04T22:08:39.774Z,5.90
2022-12-04T22:11:10.043Z,5.90
2022-12-04T22:13:37.662Z,5.90
2022-12-04T22:16:07.959Z,5.90
2022-12-04T22:18:35.010Z,5.90
2022-12-04T22:21:07.571Z,6.00
2022-12-04T22:23:34.871Z,5.90
2022-12-04T22:26:13.648Z,5.90
2022-12-04T22:28:41.043Z,6.00
2022-12-04T22:31:13.278Z,5.90
2022-12-04T22:33:40.357Z,5.90
2022-12-04T22:36:09.702Z,5.90
2022-12-04T22:38:52.660Z,5.90
2022-12-04T22:41:27.713Z,5.90
2022-12-04T22:43:54.490Z,5.90
2022-12-04T22:46:21.302Z,5.90
2022-12-04T22:48:48.124Z,5.90
2022-12-04T22:51:18.120Z,6.00
2022-12-04T22:53:47.336Z,6.00
2022-12-04T22:56:16.546Z,6.00
2022-12-04T22:58:44.282Z,6.00
2022-12-04T23:01:11.680Z,6.00
2022-12-04T23:03:38.600Z,6.00
2022-12-04T23:06:05.735Z,6.00
2022-12-04T23:08:33.502Z,6.00
2022-12-04T23:11:05.129Z,5.90
2022-12-04T23:13:31.890Z,5.90
2022-12-04T23:15:59.534Z,5.90
2022-12-04T23:18:28.664Z,5.90
2022-12-04T23:21:11.483Z,6.00
2022-12-04T23:23:39.892Z,5.90
2022-12-04T23:26:08.821Z,5.90
2022-12-04T23:28:35.919Z,5.90
2022-12-04T23:31:03.816Z,5.90
2022-12-04T23:33:31.336Z,6.10
2022-12-04T23:35:59.809Z,5.90
2022-12-04T23:38:27.737Z,5.90
2022-12-04T23:41:08.983Z,5.90
2022-12-04T23:43:36.553Z,5.90
2022-12-04T23:46:10.380Z,5.90
2022-12-04T23:48:38.333Z,5.90
2022-12-04T23:51:05.192Z,5.90
2022-12-04T23:53:31.936Z,5.90
2022-12-04T23:56:00.714Z,5.90
2022-12-04T23:58:27.424Z,5.80
